Time;durP1;ratioP1;P1;durP2;ratioP2;P2;SDS_P1;SDS_P2;PMS_P1;PMS_P2;Temp;Humidity;BMP_temperature;BMP_pressure;BME280_temperature;BME280_humidity;BME280_pressure;Samples;Min_cycle;Max_cycle;Signal;HPM_P1;HPM_P2
2021/03/15 00:01:11;;;;;;;5.50;5.10;;;4.20;99.90;;;;;;5085622;28;20675;-90
2021/03/15 00:03:38;;;;;;;4.83;4.43;;;4.20;99.90;;;;;;5085786;28;20627;-88
2021/03/15 00:06:06;;;;;;;6.77;5.27;;;4.20;99.90;;;;;;5094376;28;20636;-89
2021/03/15 00:08:33;;;;;;;5.20;4.80;;;4.30;99.90;;;;;;5088937;28;20636;-90
2021/03/15 00:11:00;;;;;;;5.37;4.90;;;4.20;99.90;;;;;;5081481;28;20651;-90
2021/03/15 00:13:28;;;;;;;6.03;4.27;;;4.20;99.90;;;;;;5088944;28;21034;-90
2021/03/15 00:15:57;;;;;;;5.30;4.80;;;4.20;99.90;;;;;;5086496;28;20632;-90
2021/03/15 00:18:23;;;;;;;4.23;3.80;;;4.20;99.90;;;;;;5080500;28;20631;-92
2021/03/15 00:20:50;;;;;;;4.70;4.30;;;4.10;99.90;;;;;;5087046;28;21045;-89
2021/03/15 00:23:17;;;;;;;5.47;3.90;;;4.10;99.90;;;;;;5086285;28;20611;-90
2021/03/15 00:25:44;;;;;;;4.17;3.77;;;4.00;99.90;;;;;;5086804;28;20646;-88
2021/03/15 00:28:11;;;;;;;5.90;4.00;;;4.10;99.90;;;;;;5086899;28;20639;-90
2021/03/15 00:30:37;;;;;;;4.60;4.13;;;4.10;99.90;;;;;;5085042;28;20648;-90
2021/03/15 00:33:04;;;;;;;5.13;4.20;;;4.10;99.90;;;;;;5086494;28;20670;-89
2021/03/15 00:35:31;;;;;;;6.43;4.33;;;4.10;99.90;;;;;;5088326;28;20619;-89
2021/03/15 00:37:58;;;;;;;4.50;3.70;;;4.00;99.90;;;;;;5094997;28;20674;-89
2021/03/15 00:40:25;;;;;;;5.03;4.20;;;4.10;99.90;;;;;;5087244;28;21271;-89
2021/03/15 00:42:56;;;;;;;5.03;4.53;;;4.10;99.90;;;;;;5086363;28;20585;-88
2021/03/15 00:45:24;;;;;;;4.73;4.40;;;4.00;99.90;;;;;;5087740;28;20708;-90
2021/03/15 00:47:51;;;;;;;7.40;3.90;;;3.90;99.90;;;;;;5088530;28;20619;-89
2021/03/15 00:50:24;;;;;;;7.70;4.13;;;3.90;99.90;;;;;;5088160;28;20623;-90
2021/03/15 00:52:50;;;;;;;5.53;4.20;;;3.80;99.90;;;;;;5088658;28;20577;-90
2021/03/15 00:55:17;;;;;;;4.70;4.30;;;3.80;99.90;;;;;;5088718;28;20632;-90
2021/03/15 00:57:45;;;;;;;4.30;3.90;;;3.90;99.90;;;;;;5089765;28;20677;-87
2021/03/15 01:00:15;;;;;;;4.83;3.97;;;3.80;99.90;;;;;;5086871;28;20721;-89
2021/03/15 01:02:41;;;;;;;6.77;4.00;;;3.80;99.90;;;;;;5085694;28;20647;-89
2021/03/15 01:05:09;;;;;;;6.17;3.93;;;3.80;99.90;;;;;;5089681;28;20624;-88
2021/03/15 01:07:35;;;;;;;3.90;3.60;;;3.80;99.90;;;;;;5085948;28;20624;-88
2021/03/15 01:10:01;;;;;;;4.87;4.47;;;3.80;99.90;;;;;;5087700;28;20631;-88
2021/03/15 01:12:28;;;;;;;4.23;3.83;;;3.80;99.90;;;;;;5086360;28;21304;-89
2021/03/15 01:14:55;;;;;;;4.30;3.97;;;3.70;99.90;;;;;;5090196;28;20628;-88
2021/03/15 01:17:27;;;;;;;5.13;4.73;;;3.70;99.90;;;;;;5089744;28;20689;-88
2021/03/15 01:19:54;;;;;;;4.53;4.13;;;3.70;99.90;;;;;;5086266;28;20671;-88
2021/03/15 01:22:20;;;;;;;5.07;4.53;;;3.70;99.90;;;;;;5087172;28;20654;-89
2021/03/15 01:24:46;;;;;;;5.00;4.60;;;3.70;99.90;;;;;;5087851;28;20738;-88
2021/03/15 01:27:13;;;;;;;5.30;4.00;;;3.70;99.90;;;;;;5086152;28;20608;-88
2021/03/15 01:29:39;;;;;;;4.67;4.20;;;3.70;99.90;;;;;;5086199;28;20620;-89
2021/03/15 01:32:07;;;;;;;4.07;3.67;;;3.70;99.90;;;;;;5086248;28;20978;-89
2021/03/15 01:34:33;;;;;;;9.70;4.47;;;3.70;99.90;;;;;;5086936;28;20616;-88
2021/03/15 01:37:01;;;;;;;4.37;4.07;;;3.70;99.90;;;;;;5085087;28;20632;-89
2021/03/15 01:39:27;;;;;;;4.90;4.33;;;3.70;99.90;;;;;;5085709;28;20674;-88
2021/03/15 01:41:53;;;;;;;4.30;4.00;;;3.60;99.90;;;;;;5090278;28;20675;-89
2021/03/15 01:44:20;;;;;;;4.70;4.30;;;3.60;99.90;;;;;;5090998;28;20628;-89
2021/03/15 01:46:46;;;;;;;4.60;4.20;;;3.60;99.90;;;;;;5096663;28;20635;-88
2021/03/15 01:49:13;;;;;;;4.90;4.50;;;3.50;99.90;;;;;;5088087;28;20696;-89
2021/03/15 01:51:41;;;;;;;4.40;4.00;;;3.50;99.90;;;;;;5090298;28;20666;-89
2021/03/15 01:54:08;;;;;;;5.67;4.53;;;3.40;99.90;;;;;;5091290;28;20632;-90
2021/03/15 01:56:35;;;;;;;5.17;4.67;;;3.40;99.90;;;;;;5089842;28;20625;-88
2021/03/15 01:59:02;;;;;;;4.30;3.90;;;3.30;99.90;;;;;;5092220;28;20638;-89
2021/03/15 02:01:29;;;;;;;5.63;5.03;;;3.30;99.90;;;;;;5095628;28;20765;-89
2021/03/15 02:03:55;;;;;;;5.73;5.23;;;3.30;99.90;;;;;;5098981;28;20672;-87
2021/03/15 02:06:24;;;;;;;4.87;4.47;;;3.30;99.90;;;;;;5114070;28;20704;-88
2021/03/15 02:08:50;;;;;;;5.83;4.20;;;3.30;99.90;;;;;;5112016;28;20638;-90
2021/03/15 02:11:33;;;;;;;5.23;4.50;;;3.20;99.90;;;;;;5116649;28;20644;-91
2021/03/15 02:14:07;;;;;;;5.20;4.80;;;3.20;99.90;;;;;;5116765;28;20678;-90
2021/03/15 02:16:41;;;;;;;5.77;5.37;;;3.10;99.90;;;;;;5115729;28;20689;-91
2021/03/15 02:19:42;;;;;;;5.60;4.27;;;3.10;99.90;;;;;;5115949;28;20721;-90
2021/03/15 02:22:27;;;;;;;4.43;4.03;;;3.10;99.90;;;;;;5088428;28;20634;-91
2021/03/15 02:25:18;;;;;;;4.70;4.40;;;3.00;99.90;;;;;;5092184;28;20704;-91
2021/03/15 02:28:15;;;;;;;4.87;4.47;;;2.90;99.90;;;;;;5088379;28;20645;-92
2021/03/15 02:30:51;;;;;;;5.07;4.60;;;2.80;99.90;;;;;;5086686;28;20671;-91
2021/03/15 02:33:46;;;;;;;6.23;4.67;;;2.70;99.90;;;;;;5095062;28;20631;-92
2021/03/15 02:36:16;;;;;;;6.67;4.90;;;2.60;99.90;;;;;;5092686;28;21022;-90
2021/03/15 02:38:47;;;;;;;4.70;4.30;;;2.60;99.90;;;;;;5090619;28;20612;-91
2021/03/15 02:41:18;;;;;;;4.93;4.37;;;2.60;99.90;;;;;;5089246;28;21241;-89
2021/03/15 02:43:47;;;;;;;4.80;4.43;;;2.60;99.90;;;;;;5089322;28;21283;-89
2021/03/15 02:46:17;;;;;;;5.67;5.07;;;2.50;99.90;;;;;;5087923;28;20623;-88
2021/03/15 02:48:45;;;;;;;7.77;5.90;;;2.60;99.90;;;;;;5088881;28;20627;-88
2021/03/15 02:51:16;;;;;;;7.00;5.10;;;2.60;99.90;;;;;;5090066;28;20632;-88
2021/03/15 02:53:45;;;;;;;5.40;4.90;;;2.50;99.90;;;;;;5093456;28;20689;-88
2021/03/15 02:56:17;;;;;;;7.23;4.67;;;2.50;99.90;;;;;;5094583;28;20626;-89
2021/03/15 02:58:44;;;;;;;5.00;4.60;;;2.50;99.90;;;;;;5100585;28;20619;-90
2021/03/15 03:01:14;;;;;;;5.30;4.80;;;2.50;99.90;;;;;;5091196;28;20706;-91
2021/03/15 03:03:42;;;;;;;7.53;4.90;;;2.40;99.90;;;;;;5091165;28;20660;-90
2021/03/15 03:06:11;;;;;;;4.93;4.53;;;2.40;99.90;;;;;;5089360;28;20632;-88
2021/03/15 03:08:39;;;;;;;5.30;4.40;;;2.40;99.90;;;;;;5089974;28;20631;-90
2021/03/15 03:11:06;;;;;;;5.33;4.63;;;2.40;99.90;;;;;;5089140;28;20702;-90
2021/03/15 03:13:34;;;;;;;5.33;4.93;;;2.40;99.90;;;;;;5091120;28;20728;-88
2021/03/15 03:16:01;;;;;;;6.27;5.77;;;2.40;99.90;;;;;;5087217;28;20613;-89
2021/03/15 03:18:30;;;;;;;8.63;7.57;;;2.40;99.90;;;;;;5085754;28;20627;-88
2021/03/15 03:20:59;;;;;;;6.50;5.57;;;2.40;99.90;;;;;;5088633;28;20742;-88
2021/03/15 03:23:28;;;;;;;5.83;5.33;;;2.50;99.90;;;;;;5093959;28;20655;-90
2021/03/15 03:25:56;;;;;;;5.10;4.70;;;2.60;99.90;;;;;;5092662;28;20628;-89
2021/03/15 03:28:24;;;;;;;7.90;7.00;;;2.60;99.90;;;;;;5092781;28;20628;-89
2021/03/15 03:30:51;;;;;;;7.00;6.40;;;2.60;99.90;;;;;;5087076;28;20636;-90
2021/03/15 03:33:18;;;;;;;5.80;5.20;;;2.80;99.90;;;;;;5089001;28;20694;-91
2021/03/15 03:35:45;;;;;;;8.40;5.03;;;2.80;99.90;;;;;;5088444;28;20625;-91
2021/03/15 03:38:12;;;;;;;5.63;5.07;;;2.80;99.90;;;;;;5091234;28;20678;-91
2021/03/15 03:40:38;;;;;;;5.97;4.97;;;2.80;99.90;;;;;;5089201;28;20648;-92
2021/03/15 03:43:05;;;;;;;7.03;4.90;;;2.70;99.90;;;;;;5086135;28;20656;-93
2021/03/15 03:45:32;;;;;;;4.63;4.20;;;2.90;99.90;;;;;;5082316;28;20624;-91
2021/03/15 03:47:58;;;;;;;4.57;3.93;;;3.00;99.90;;;;;;5089364;28;20640;-92
2021/03/15 03:50:27;;;;;;;4.77;4.03;;;3.00;99.90;;;;;;5088730;28;20616;-92
2021/03/15 03:52:57;;;;;;;5.23;4.73;;;3.00;99.90;;;;;;5088514;28;20663;-92
2021/03/15 03:55:29;;;;;;;4.60;4.20;;;3.00;99.90;;;;;;5088948;28;20632;-91
2021/03/15 03:57:57;;;;;;;6.80;5.00;;;3.00;99.90;;;;;;5087757;28;20719;-90
2021/03/15 04:00:26;;;;;;;5.00;4.50;;;3.10;99.90;;;;;;5087515;28;20709;-91
2021/03/15 04:02:56;;;;;;;5.97;4.13;;;3.20;99.90;;;;;;5087977;28;20648;-91
2021/03/15 04:05:27;;;;;;;4.90;4.37;;;3.20;99.90;;;;;;5090730;28;20640;-90
2021/03/15 04:07:57;;;;;;;7.03;4.50;;;3.10;99.90;;;;;;5096291;28;20572;-89
2021/03/15 04:10:34;;;;;;;6.87;4.10;;;3.20;99.90;;;;;;5083081;28;21189;-88
2021/03/15 04:13:05;;;;;;;4.40;4.00;;;3.10;99.90;;;;;;5087780;28;20667;-89
2021/03/15 04:15:33;;;;;;;4.53;4.10;;;3.10;99.90;;;;;;5087178;28;21049;-89
2021/03/15 04:18:03;;;;;;;5.77;4.30;;;3.20;99.90;;;;;;5086312;28;20632;-87
2021/03/15 04:20:32;;;;;;;7.50;4.03;;;3.30;99.90;;;;;;5089528;28;20656;-89
2021/03/15 04:23:00;;;;;;;5.93;4.70;;;3.40;99.90;;;;;;5086886;28;21203;-90
2021/03/15 04:25:31;;;;;;;4.40;4.00;;;3.40;99.90;;;;;;5084495;28;20632;-90
2021/03/15 04:28:00;;;;;;;4.40;4.03;;;3.50;99.90;;;;;;5088750;28;20608;-89
2021/03/15 04:30:28;;;;;;;5.80;4.70;;;3.40;99.90;;;;;;5085322;28;20628;-90
2021/03/15 04:32:57;;;;;;;4.30;3.70;;;3.40;99.90;;;;;;5087635;28;20652;-90
2021/03/15 04:35:26;;;;;;;5.83;3.47;;;3.30;99.90;;;;;;5087195;28;20632;-89
2021/03/15 04:37:54;;;;;;;6.23;4.00;;;3.40;99.90;;;;;;5088201;28;21183;-88
2021/03/15 04:40:26;;;;;;;4.20;3.57;;;3.40;99.90;;;;;;5093443;28;20648;-89
2021/03/15 04:42:59;;;;;;;8.57;4.30;;;3.50;99.90;;;;;;5089299;28;20650;-91
2021/03/15 04:45:26;;;;;;;6.50;4.47;;;3.60;99.90;;;;;;5082211;28;20636;-91
2021/03/15 04:47:52;;;;;;;4.00;3.63;;;3.50;99.90;;;;;;5088147;28;20640;-91
2021/03/15 04:50:21;;;;;;;4.07;3.70;;;3.50;99.90;;;;;;5089649;28;21167;-93
2021/03/15 04:52:50;;;;;;;4.63;4.23;;;3.60;99.90;;;;;;5090188;28;20608;-91
2021/03/15 04:55:16;;;;;;;4.10;3.80;;;3.60;99.90;;;;;;5088516;28;20660;-90
2021/03/15 04:57:45;;;;;;;4.87;4.23;;;3.60;99.90;;;;;;5085322;28;20684;-89
2021/03/15 05:00:13;;;;;;;15.00;13.50;;;3.60;99.90;;;;;;5082703;28;20946;-90
2021/03/15 05:02:43;;;;;;;7.90;7.20;;;3.80;99.90;;;;;;5097976;28;20618;-91
2021/03/15 05:05:12;;;;;;;5.83;4.37;;;3.80;99.90;;;;;;5104919;28;21034;-91
2021/03/15 05:07:41;;;;;;;4.80;4.30;;;3.90;99.90;;;;;;5095281;28;20636;-91
2021/03/15 05:10:10;;;;;;;4.13;3.80;;;3.90;99.90;;;;;;5106119;28;21232;-91
2021/03/15 05:12:39;;;;;;;4.73;4.30;;;3.90;99.90;;;;;;5108490;28;20641;-93
2021/03/15 05:15:08;;;;;;;7.60;3.67;;;3.90;99.90;;;;;;5109935;28;20644;-92
2021/03/15 05:17:36;;;;;;;4.37;4.07;;;4.00;99.90;;;;;;5112366;28;20692;-93
2021/03/15 05:20:04;;;;;;;5.17;4.63;;;3.90;99.90;;;;;;5112360;28;20647;-91
2021/03/15 05:22:32;;;;;;;6.97;4.70;;;3.90;99.90;;;;;;5109654;28;20612;-91
2021/03/15 05:25:01;;;;;;;5.27;4.77;;;4.00;99.90;;;;;;5109332;28;20649;-91
2021/03/15 05:27:28;;;;;;;6.40;5.20;;;4.00;99.90;;;;;;5111798;28;20604;-91
2021/03/15 05:29:55;;;;;;;7.20;5.77;;;4.00;99.90;;;;;;5107071;28;21155;-92
2021/03/15 05:32:25;;;;;;;5.57;5.17;;;3.90;99.90;;;;;;5105718;28;20692;-94
2021/03/15 05:34:53;;;;;;;5.20;4.00;;;3.90;99.90;;;;;;5111673;28;20720;-92
2021/03/15 05:37:20;;;;;;;4.30;3.90;;;3.90;99.90;;;;;;5110160;28;20649;-88
2021/03/15 05:39:46;;;;;;;4.00;3.70;;;3.90;99.90;;;;;;5107592;28;20688;-93
2021/03/15 05:42:41;;;;;;;5.40;3.37;;;4.00;99.90;;;;;;5115651;28;20623;-91
2021/03/15 05:45:25;;;;;;;3.00;2.70;;;4.10;99.90;;;;;;5105871;28;20715;-93
2021/03/15 05:48:41;;;;;;;4.90;3.57;;;4.20;99.90;;;;;;5104314;28;21126;-92
2021/03/15 05:51:24;;;;;;;4.30;3.27;;;4.20;99.90;;;;;;5101658;28;20628;-93
2021/03/15 05:54:17;;;;;;;4.97;3.47;;;4.10;99.90;;;;;;5098773;28;20643;-93
2021/03/15 05:57:02;;;;;;;5.73;3.13;;;4.10;99.90;;;;;;5094842;28;20632;-89
2021/03/15 06:00:22;;;;;;;6.73;4.23;;;4.10;99.90;;;;;;5086006;28;21022;-89
2021/03/15 06:03:19;;;;;;;4.13;3.07;;;4.10;99.90;;;;;;5076504;28;20639;-91
2021/03/15 06:05:47;;;;;;;5.90;3.47;;;4.20;99.90;;;;;;5091897;28;20630;-93
2021/03/15 06:08:19;;;;;;;4.80;3.63;;;4.20;99.90;;;;;;5096261;28;20632;-92
2021/03/15 06:11:03;;;;;;;5.00;3.30;;;4.20;99.90;;;;;;5089191;28;20628;-93
2021/03/15 06:13:32;;;;;;;4.50;2.90;;;4.20;99.90;;;;;;5090594;28;20616;-93
2021/03/15 06:16:00;;;;;;;5.27;3.20;;;4.30;99.90;;;;;;5091488;28;20655;-92
2021/03/15 06:18:29;;;;;;;9.37;4.37;;;4.30;99.90;;;;;;5089911;28;20650;-92
2021/03/15 06:20:56;;;;;;;6.23;3.70;;;4.20;99.90;;;;;;5097575;28;21110;-93
2021/03/15 06:23:24;;;;;;;6.53;2.90;;;4.20;99.90;;;;;;5114930;28;20622;-91
2021/03/15 06:25:50;;;;;;;3.53;3.23;;;4.30;99.90;;;;;;5112671;28;20743;-90
2021/03/15 06:28:18;;;;;;;5.60;3.80;;;4.20;99.90;;;;;;5110528;28;20649;-91
2021/03/15 06:30:48;;;;;;;5.00;3.70;;;4.20;99.90;;;;;;5108215;28;20628;-91
2021/03/15 06:33:19;;;;;;;3.67;3.30;;;4.20;99.90;;;;;;5089966;28;20608;-91
2021/03/15 06:35:48;;;;;;;10.10;3.70;;;4.20;99.90;;;;;;5096226;28;20675;-91
2021/03/15 06:38:17;;;;;;;3.90;2.93;;;4.20;99.90;;;;;;5095800;28;21166;-91
2021/03/15 06:40:45;;;;;;;5.27;2.90;;;4.20;99.90;;;;;;5095855;28;20675;-93
2021/03/15 06:43:13;;;;;;;5.33;3.20;;;4.20;99.90;;;;;;5093328;28;20628;-91
2021/03/15 06:45:42;;;;;;;6.20;3.57;;;4.20;99.90;;;;;;5091908;28;20658;-90
2021/03/15 06:48:09;;;;;;;5.70;2.97;;;4.20;99.90;;;;;;5097131;28;21000;-92
2021/03/15 06:50:44;;;;;;;4.10;3.20;;;4.20;99.90;;;;;;5085699;28;20719;-91
2021/03/15 06:53:11;;;;;;;3.97;2.87;;;4.30;99.90;;;;;;5090489;28;20631;-91
2021/03/15 06:55:50;;;;;;;3.60;3.30;;;4.30;99.90;;;;;;5089953;28;21054;-93
2021/03/15 06:58:23;;;;;;;3.30;3.00;;;4.40;99.90;;;;;;5090075;28;20661;-93
2021/03/15 07:01:14;;;;;;;3.47;3.17;;;4.50;99.90;;;;;;5098299;28;20662;-92
2021/03/15 07:03:42;;;;;;;4.70;3.00;;;4.50;99.90;;;;;;5095641;28;20636;-93
2021/03/15 07:06:11;;;;;;;6.07;4.07;;;4.50;99.90;;;;;;5089300;28;20672;-92
2021/03/15 07:08:39;;;;;;;2.97;2.77;;;4.50;99.90;;;;;;5090992;28;20636;-94
2021/03/15 07:11:17;;;;;;;2.50;2.23;;;4.70;99.90;;;;;;5095241;28;20651;-93
2021/03/15 07:13:47;;;;;;;2.60;2.20;;;4.70;99.90;;;;;;5096969;28;20731;-93
2021/03/15 07:16:29;;;;;;;6.07;3.00;;;4.70;99.90;;;;;;5097230;28;20643;-96
2021/03/15 07:18:56;;;;;;;6.87;2.70;;;4.70;99.90;;;;;;5095389;28;20666;-91
2021/03/15 07:21:40;;;;;;;5.67;3.27;;;4.70;99.90;;;;;;5094473;28;20658;-92
2021/03/15 07:24:09;;;;;;;3.60;2.13;;;4.90;99.90;;;;;;5110695;28;20670;-92
2021/03/15 07:26:39;;;;;;;3.27;2.20;;;4.90;99.90;;;;;;5110013;28;20648;-91
2021/03/15 07:29:12;;;;;;;2.77;2.13;;;4.90;99.90;;;;;;5100151;28;20611;-91
2021/03/15 07:31:38;;;;;;;2.50;1.97;;;4.90;99.90;;;;;;5106458;28;20664;-91
2021/03/15 07:34:14;;;;;;;4.13;1.70;;;4.90;99.90;;;;;;5097882;28;20612;-91
2021/03/15 07:36:56;;;;;;;3.00;2.10;;;5.00;99.90;;;;;;5089109;28;20679;-92
2021/03/15 07:39:24;;;;;;;2.00;1.80;;;4.80;99.90;;;;;;5093275;28;20796;-91
2021/03/15 07:41:53;;;;;;;3.83;1.70;;;5.00;99.90;;;;;;5090938;28;20675;-92
2021/03/15 07:44:26;;;;;;;3.70;2.67;;;4.90;99.90;;;;;;5089956;28;21183;-92
2021/03/15 07:46:54;;;;;;;2.13;1.77;;;5.00;99.90;;;;;;5091629;28;20655;-91
2021/03/15 07:49:29;;;;;;;2.07;1.87;;;4.80;99.90;;;;;;5097885;28;20635;-91
2021/03/15 07:52:01;;;;;;;2.63;1.87;;;4.80;99.90;;;;;;5097694;28;20615;-92
2021/03/15 07:54:30;;;;;;;2.33;2.03;;;4.70;99.90;;;;;;5090668;28;20632;-91
2021/03/15 07:57:20;;;;;;;2.20;1.80;;;4.50;99.90;;;;;;5091678;28;20675;-92
2021/03/15 07:59:49;;;;;;;2.20;1.83;;;4.40;99.90;;;;;;5093299;28;20604;-92
2021/03/15 08:02:24;;;;;;;1.60;1.50;;;4.10;99.90;;;;;;5111424;28;20652;-92
2021/03/15 08:04:52;;;;;;;2.27;1.70;;;4.10;99.90;;;;;;5092085;28;20964;-93
2021/03/15 08:07:20;;;;;;;1.77;1.67;;;4.00;99.90;;;;;;5090406;28;20671;-92
2021/03/15 08:09:48;;;;;;;1.60;1.50;;;4.10;99.90;;;;;;5089119;28;20683;-94
2021/03/15 08:12:16;;;;;;;1.60;1.50;;;4.10;99.90;;;;;;5099906;28;20735;-94
2021/03/15 08:14:46;;;;;;;2.50;1.80;;;4.10;99.90;;;;;;5109730;28;21162;-92
2021/03/15 08:17:18;;;;;;;1.67;1.57;;;4.20;99.90;;;;;;5109259;28;20635;-92
2021/03/15 08:19:47;;;;;;;1.33;1.23;;;4.30;99.90;;;;;;5097691;28;20640;-93
2021/03/15 08:22:18;;;;;;;2.07;1.90;;;4.30;99.90;;;;;;5087110;28;20615;-92
2021/03/15 08:24:49;;;;;;;1.73;1.63;;;4.30;99.90;;;;;;5102478;28;20759;-92
2021/03/15 08:27:16;;;;;;;2.03;1.43;;;4.40;99.90;;;;;;5091262;28;20667;-93
2021/03/15 08:29:46;;;;;;;2.00;1.70;;;4.30;99.90;;;;;;5089551;28;20628;-93
2021/03/15 08:32:14;;;;;;;4.23;2.43;;;4.50;99.90;;;;;;5090224;28;21098;-90
2021/03/15 08:34:43;;;;;;;3.73;1.77;;;4.70;99.90;;;;;;5092723;28;21096;-93
2021/03/15 08:37:11;;;;;;;1.70;1.60;;;4.70;99.90;;;;;;5092478;28;21020;-92
2021/03/15 08:39:40;;;;;;;1.77;1.60;;;4.90;99.90;;;;;;5095386;28;20681;-91
2021/03/15 08:42:27;;;;;;;1.67;1.57;;;5.00;99.90;;;;;;5100012;28;20692;-92
2021/03/15 08:44:57;;;;;;;2.10;2.00;;;5.10;99.90;;;;;;5095158;28;20636;-91
2021/03/15 08:47:49;;;;;;;2.50;1.63;;;5.10;99.90;;;;;;5094597;28;20656;-90
2021/03/15 08:50:43;;;;;;;2.00;1.87;;;5.20;99.90;;;;;;5093440;28;20677;-91
2021/03/15 08:53:10;;;;;;;2.20;2.10;;;5.20;99.90;;;;;;5100003;28;20617;-90
2021/03/15 08:55:48;;;;;;;1.93;1.50;;;5.30;99.90;;;;;;5090867;28;20749;-89
2021/03/15 08:58:40;;;;;;;2.00;1.80;;;5.30;99.90;;;;;;5090181;28;20627;-90
2021/03/15 09:01:11;;;;;;;1.77;1.67;;;5.30;99.90;;;;;;5086650;28;21068;-89
2021/03/15 09:03:48;;;;;;;1.57;1.47;;;5.30;99.90;;;;;;5088900;28;20739;-91
2021/03/15 09:06:36;;;;;;;2.10;1.53;;;5.40;99.90;;;;;;5091847;28;20671;-90
2021/03/15 09:09:05;;;;;;;2.20;1.53;;;5.40;99.90;;;;;;5087406;28;20649;-92
2021/03/15 09:11:49;;;;;;;1.60;1.50;;;5.50;99.90;;;;;;5091256;28;20651;-91
2021/03/15 09:14:36;;;;;;;0.83;0.83;;;5.50;99.90;;;;;;5084075;28;20640;-91
2021/03/15 09:17:39;;;;;;;0.90;0.90;;;5.40;99.90;;;;;;5089315;28;21169;-90
2021/03/15 09:20:19;;;;;;;2.40;2.20;;;5.40;99.90;;;;;;5080896;28;20932;-90
2021/03/15 09:22:46;;;;;;;1.40;1.30;;;5.60;99.90;;;;;;5092335;28;21188;-91
2021/03/15 09:25:21;;;;;;;1.57;1.40;;;5.60;99.90;;;;;;5092928;28;20643;-91
2021/03/15 09:27:54;;;;;;;2.13;1.40;;;5.60;99.90;;;;;;5089429;28;20649;-90
2021/03/15 09:30:26;;;;;;;2.33;1.97;;;5.60;99.90;;;;;;5091484;28;20635;-91
2021/03/15 09:32:54;;;;;;;2.20;1.30;;;5.50;99.90;;;;;;5093951;28;20753;-90
2021/03/15 09:35:32;;;;;;;1.20;1.10;;;5.60;99.90;;;;;;5093022;28;21111;-91
2021/03/15 09:38:01;;;;;;;1.27;1.17;;;5.80;99.90;;;;;;5092321;28;20616;-91
2021/03/15 09:40:31;;;;;;;2.00;1.10;;;5.70;99.90;;;;;;5090343;28;20662;-91
2021/03/15 09:42:59;;;;;;;1.43;1.30;;;5.70;99.90;;;;;;5095740;28;20635;-91
2021/03/15 09:45:40;;;;;;;1.13;0.97;;;5.80;99.90;;;;;;5089989;28;20855;-92
2021/03/15 09:48:18;;;;;;;1.70;0.87;;;6.00;99.90;;;;;;5090057;28;20646;-91
2021/03/15 09:50:47;;;;;;;1.00;0.77;;;6.00;99.90;;;;;;5091944;28;20627;-92
2021/03/15 09:53:16;;;;;;;1.53;1.07;;;6.10;99.90;;;;;;5089254;28;21319;-91
2021/03/15 09:55:42;;;;;;;2.07;1.10;;;6.20;99.90;;;;;;5087703;28;20655;-91
2021/03/15 09:58:14;;;;;;;1.13;0.90;;;6.20;99.90;;;;;;5088775;28;20628;-91
2021/03/15 10:00:42;;;;;;;1.83;1.10;;;6.20;99.90;;;;;;5079599;28;20794;-90
2021/03/15 10:03:18;;;;;;;2.63;1.53;;;6.30;99.90;;;;;;5091893;28;20604;-91
2021/03/15 10:05:46;;;;;;;1.70;1.00;;;6.40;99.90;;;;;;5090692;28;21202;-91
2021/03/15 10:08:13;;;;;;;2.13;1.20;;;6.30;99.90;;;;;;5095804;28;21101;-91
2021/03/15 10:10:39;;;;;;;1.60;1.50;;;6.30;99.90;;;;;;5093737;28;20626;-91
2021/03/15 10:13:07;;;;;;;3.03;1.80;;;6.30;99.90;;;;;;5093191;28;21037;-90
2021/03/15 10:15:34;;;;;;;1.63;1.53;;;6.50;99.90;;;;;;5090680;28;20658;-91
2021/03/15 10:18:01;;;;;;;1.73;1.40;;;6.50;99.90;;;;;;5097043;28;20640;-89
2021/03/15 10:20:30;;;;;;;3.73;1.47;;;6.60;99.90;;;;;;5107267;28;20684;-90
2021/03/15 10:22:57;;;;;;;1.37;1.27;;;6.50;99.90;;;;;;5101731;28;20638;-89
2021/03/15 10:25:24;;;;;;;2.20;2.00;;;6.50;99.90;;;;;;5100900;28;20662;-89
2021/03/15 10:27:54;;;;;;;2.30;1.03;;;6.60;99.90;;;;;;5093107;28;20638;-89
2021/03/15 10:30:25;;;;;;;2.33;1.60;;;6.50;99.90;;;;;;5087487;28;21345;-88
2021/03/15 10:32:52;;;;;;;1.60;1.50;;;6.40;99.90;;;;;;5093921;28;20607;-89
2021/03/15 10:35:20;;;;;;;2.10;1.40;;;6.50;99.90;;;;;;5094690;28;20711;-90
2021/03/15 10:37:51;;;;;;;2.37;1.57;;;6.50;99.90;;;;;;5091544;28;20608;-88
2021/03/15 10:40:19;;;;;;;8.27;2.83;;;6.50;99.90;;;;;;5093579;28;21069;-91
2021/03/15 10:42:46;;;;;;;2.00;1.50;;;6.60;99.90;;;;;;5095696;28;20643;-89
2021/03/15 10:45:14;;;;;;;2.30;2.10;;;6.60;99.90;;;;;;5091442;28;20647;-88
2021/03/15 10:47:42;;;;;;;3.50;2.07;;;6.50;99.90;;;;;;5092701;28;20619;-89
2021/03/15 10:50:28;;;;;;;1.90;1.80;;;6.40;99.90;;;;;;5083186;28;20620;-89
2021/03/15 10:52:57;;;;;;;2.43;2.23;;;6.40;99.90;;;;;;5087575;28;20612;-90
2021/03/15 10:55:30;;;;;;;2.43;2.23;;;6.50;99.90;;;;;;5086028;28;20674;-89
2021/03/15 10:58:03;;;;;;;2.30;1.57;;;6.40;99.90;;;;;;5088198;28;20631;-89
2021/03/15 11:00:31;;;;;;;4.00;1.93;;;6.50;99.90;;;;;;5086167;28;20648;-90
2021/03/15 11:02:58;;;;;;;2.00;1.90;;;6.50;99.90;;;;;;5082526;28;20635;-87
2021/03/15 11:05:24;;;;;;;1.60;1.50;;;6.60;99.90;;;;;;5082883;28;20630;-89
2021/03/15 11:07:53;;;;;;;1.97;1.73;;;6.80;99.90;;;;;;5090156;28;20616;-88
2021/03/15 11:10:21;;;;;;;3.07;1.80;;;7.00;99.90;;;;;;5085825;28;20617;-89
2021/03/15 11:12:50;;;;;;;2.00;1.77;;;7.10;99.90;;;;;;5088090;28;20630;-87
2021/03/15 11:15:20;;;;;;;1.40;1.30;;;7.30;99.90;;;;;;5086795;28;21226;-89
2021/03/15 11:18:08;;;;;;;1.40;1.30;;;7.40;99.90;;;;;;5084350;28;21001;-88
2021/03/15 11:20:53;;;;;;;1.10;1.10;;;7.20;99.90;;;;;;5088733;28;21233;-89
2021/03/15 11:23:31;;;;;;;1.50;1.40;;;7.10;99.90;;;;;;5090286;28;20994;-88
2021/03/15 11:26:09;;;;;;;1.47;1.37;;;7.10;99.90;;;;;;5086354;28;20770;-88
2021/03/15 11:28:38;;;;;;;2.37;2.17;;;7.00;99.90;;;;;;5089595;28;20610;-88
2021/03/15 11:31:06;;;;;;;1.63;1.53;;;7.00;99.90;;;;;;5083877;28;20663;-89
2021/03/15 11:33:33;;;;;;;1.90;1.80;;;7.10;99.90;;;;;;5085244;28;20601;-90
2021/03/15 11:36:01;;;;;;;1.50;1.40;;;7.30;99.90;;;;;;5101849;28;20667;-91
2021/03/15 11:38:28;;;;;;;1.30;1.10;;;7.30;99.90;;;;;;5115979;28;20581;-92
2021/03/15 11:40:56;;;;;;;2.00;1.43;;;7.20;99.90;;;;;;5112451;28;20738;-93
2021/03/15 11:43:24;;;;;;;1.57;1.47;;;7.20;99.90;;;;;;5092065;28;21148;-93
2021/03/15 11:45:53;;;;;;;2.40;1.70;;;7.20;99.90;;;;;;5091485;28;20663;-92
2021/03/15 11:48:20;;;;;;;1.70;1.60;;;7.20;99.90;;;;;;5092092;28;20629;-92
2021/03/15 11:50:49;;;;;;;1.83;1.73;;;7.10;99.90;;;;;;5093488;28;20628;-92
2021/03/15 11:53:16;;;;;;;2.00;1.80;;;7.30;99.90;;;;;;5088044;28;20647;-92
2021/03/15 11:55:43;;;;;;;1.80;1.70;;;7.30;99.90;;;;;;5091212;28;20671;-92
2021/03/15 11:58:11;;;;;;;2.13;2.03;;;7.30;99.90;;;;;;5091215;28;20635;-93
2021/03/15 12:00:37;;;;;;;2.07;1.97;;;7.40;99.90;;;;;;5090185;28;20691;-92
2021/03/15 12:03:31;;;;;;;2.50;1.60;;;7.30;99.90;;;;;;5103722;28;20635;-95
2021/03/15 12:06:05;;;;;;;2.33;1.83;;;7.40;99.90;;;;;;5109948;28;20647;-93
2021/03/15 12:11:01;;;;;;;2.63;2.00;;;7.70;99.90;;;;;;5068397;28;20662;-92
2021/03/15 12:13:28;;;;;;;1.40;1.20;;;8.30;99.90;;;;;;5071364;28;20640;-95
2021/03/15 12:16:06;;;;;;;1.30;1.20;;;8.40;99.90;;;;;;5063724;28;20710;-93
2021/03/15 12:18:33;;;;;;;1.13;1.13;;;8.20;99.90;;;;;;5057777;28;20657;-94
2021/03/15 12:21:10;;;;;;;1.67;1.57;;;8.60;99.90;;;;;;5042117;28;20735;-94
2021/03/15 12:23:41;;;;;;;1.80;1.70;;;8.40;99.90;;;;;;5048258;28;20631;-95
2021/03/15 12:26:19;;;;;;;1.83;1.73;;;8.20;99.90;;;;;;5042019;28;20622;-95
2021/03/15 12:31:47;;;;;;;2.00;1.90;;;7.80;99.90;;;;;;5037680;28;20625;-95
2021/03/15 12:34:21;;;;;;;1.47;1.37;;;7.90;99.90;;;;;;5047185;28;20731;-95
2021/03/15 12:37:07;;;;;;;1.37;1.27;;;7.70;99.90;;;;;;5046415;28;20623;-95
2021/03/15 12:50:04;;;;;;;2.80;2.60;;;7.50;99.90;;;;;;5035641;22;21139;-95
2021/03/15 12:52:51;;;;;;;3.80;2.60;;;7.50;99.90;;;;;;5019423;28;20610;-94
2021/03/15 12:55:18;;;;;;;2.40;2.20;;;7.70;99.90;;;;;;5026602;28;20610;-93
2021/03/15 12:57:46;;;;;;;2.50;2.30;;;8.00;99.90;;;;;;4987985;28;20712;-93
2021/03/15 13:00:16;;;;;;;2.93;2.73;;;8.90;99.90;;;;;;5001574;28;20652;-94
2021/03/15 13:02:42;;;;;;;2.17;1.97;;;10.00;99.90;;;;;;5010516;28;20625;-95
2021/03/15 13:05:22;;;;;;;1.80;1.70;;;10.20;99.90;;;;;;5011270;28;20692;-93
2021/03/15 13:07:49;;;;;;;2.73;1.50;;;10.40;99.90;;;;;;5009062;28;20707;-95
2021/03/15 13:21:03;;;;;;;1.07;1.07;;;10.30;99.90;;;;;;5219431;23;20710;-96
2021/03/15 13:23:35;;;;;;;1.10;1.10;;;10.10;99.90;;;;;;5519652;22;21096;-94
2021/03/15 13:26:05;;;;;;;1.60;1.50;;;10.20;99.90;;;;;;5054103;28;20631;-94
2021/03/15 13:28:38;;;;;;;2.20;1.70;;;10.60;99.10;;;;;;5056711;28;20623;-95
2021/03/15 13:31:58;;;;;;;1.73;1.63;;;10.30;97.30;;;;;;5048417;28;20639;-95
2021/03/15 18:17:25;;;;;;;6.47;5.87;;;5.60;99.90;;;;;;5842858;22;20688;-91
2021/03/15 18:19:51;;;;;;;5.13;4.67;;;5.60;99.90;;;;;;5024066;28;20631;-93
2021/03/15 18:22:18;;;;;;;5.37;4.80;;;5.50;99.90;;;;;;5049057;28;20697;-94
2021/03/15 18:24:44;;;;;;;6.93;4.90;;;5.50;99.90;;;;;;5044571;28;20657;-93
2021/03/15 18:27:17;;;;;;;5.70;5.03;;;5.50;99.90;;;;;;5054338;28;20632;-93
2021/03/15 18:29:50;;;;;;;4.13;3.80;;;5.30;99.90;;;;;;5050471;28;20638;-95